Terminal Aerodrome Forecast
Issued by NWS

Home | Current Version | Previous Version | Text Only | Print | Product List | Glossary On
Versions: 1 2 3 4 5 6 7 8 9 10 11 12 13 14 15 16
000
FTUS45 KRIW 040523
TAFCPR
TAF
KCPR 040523Z 0406/0506 28007KT P6SM VCSH SCT060 BKN100
     FM041000 21012KT P6SM -SHRA SCT040 BKN070
     FM041600 25014G22KT P6SM VCSH SCT050 BKN080
     FM041900 29015G25KT P6SM VCTS SCT050CB
     FM050100 32008KT P6SM SCT090=

USA.gov is the U.S. government's official web portal to all federal, state and local government web resources and services.